Scott, AR (72142)

8:31 AM CDT on September 29, 2016 (GMT -0500)
K5WC Furlow | | Change Station

Elev 262 ft 34.84 °N, 91.98 °W | Updated 31 seconds ago

Clear
Clear
59.0 °F
Feels Like 59.0 °F
N
7.2
Wind Variable Wind from WSW
Gusts 7.4 mph

Today
High -- | Low -- °F
--% Chance of Precip.
Yesterday
High -- | Low -- °F
Precip. -- in
Pressure 30.21 in
Visibility 10.0 miles
Clouds Clear
Dew Point 50 °F
Humidity 71%
Rainfall 0.00 in
Snow Depth Not available.
7:01 AM 6:54 PM
Waning Crescent, 2% visible
METAR KLIT 291253Z 35009KT 10SM CLR 15/09 A3021 RMK AO2 SLP230 T01500089
Pressure 30.21 in
Visibility 10.0 miles
Clouds Clear
Dew Point 50 °F
Humidity 71%
Rainfall 0.00 in
Snow Depth Not available.
7:01 AM 6:54 PM
Waning Crescent, 2% visible
METAR KLIT 291253Z 35009KT 10SM CLR 15/09 A3021 RMK AO2 SLP230 T01500089

10-Day Weather Forecast

Almanac

Astronomy

Sep. 29, 2016 Rise Set
Actual Time
Civil Twilight
Nautical Twilight
Astronomical Twilight
Moon
Length of Visible Light
Length of Day
Tomorrow will be .
, % of the Moon is Illuminated

Today's Extremes

State Highs State Lows

Community

WunderPhotos

Upload Photos

1,942,470 photos uploaded!

WunderBlog® & News

Nearby

Air Quality

  Air Quality AQ Index Pollutant
Not available.

Snow Depth

Station Depth Elevation

Earthquake Activity

City Distance Mag. Time & Date
Minimum magnitude displayed is 2.5.

Coastal Water Temperatures

Place Temperature

Stations

Nearby Weather Stations

Station Location Temp. Windchill Dew Point Humidity Wind Precip. Elev Updated Type
                   

Watches & Warnings

There are currently no watches in effect.